Time;durP1;ratioP1;P1;durP2;ratioP2;P2;SDS_P1;SDS_P2;PMS_P1;PMS_P2;Temp;Humidity;BMP_temperature;BMP_pressure;BME280_temperature;BME280_humidity;BME280_pressure;Samples;Min_cycle;Max_cycle;Signal;HPM_P1;HPM_P2
2022/03/20 00:04:44;;;;;;;1999.90;999.90;;;;;;;5.63;38.81;103608.06;15540070;28;20498;-58
2022/03/20 00:12:18;;;;;;;1999.90;999.90;;;;;;;5.40;39.17;103614.25;15521712;28;20256;-59
2022/03/20 00:19:50;;;;;;;1999.90;999.90;;;;;;;5.57;39.46;103621.97;15547625;28;20125;-62
2022/03/20 00:27:24;;;;;;;1999.90;999.90;;;;;;;5.20;39.88;103608.88;15552761;28;20096;-60
2022/03/20 00:34:59;;;;;;;1999.90;999.90;;;;;;;5.06;40.55;103599.00;15550715;28;20099;-61
2022/03/20 00:42:32;;;;;;;1999.90;999.90;;;;;;;5.06;40.99;103593.47;15525279;28;20053;-60
2022/03/20 00:50:06;;;;;;;1999.90;999.90;;;;;;;4.87;40.91;103597.25;15557978;28;20053;-61
2022/03/20 00:57:39;;;;;;;1999.90;999.90;;;;;;;4.76;41.21;103585.00;15532674;28;20050;-61
2022/03/20 01:05:11;;;;;;;1999.90;999.90;;;;;;;4.87;40.98;103578.72;15516336;28;20099;-62
2022/03/20 01:12:46;;;;;;;1999.90;999.90;;;;;;;4.83;41.00;103577.50;15531372;28;20042;-61
2022/03/20 01:20:18;;;;;;;1999.90;999.90;;;;;;;4.97;40.90;103575.44;15543948;28;20353;-60
2022/03/20 01:27:52;;;;;;;1999.90;999.90;;;;;;;4.78;41.29;103562.63;15535242;28;20081;-64
2022/03/20 01:35:26;;;;;;;1999.90;999.90;;;;;;;4.70;41.45;103563.78;15559348;22;20049;-61
2022/03/20 01:43:00;;;;;;;1999.90;999.90;;;;;;;4.56;41.81;103548.31;15573781;28;20095;-59
2022/03/20 01:50:32;;;;;;;;;;;;;;;4.64;40.69;103548.91;15609874;28;20107;-61
2022/03/20 01:58:07;;;;;;;1999.90;999.90;;;;;;;4.50;41.32;103539.03;15613719;28;19932;-61
2022/03/20 02:05:41;;;;;;;1999.90;999.90;;;;;;;4.46;41.80;103539.69;15598179;28;20081;-60
2022/03/20 02:13:15;;;;;;;1999.90;999.90;;;;;;;4.24;42.12;103517.91;15612450;28;20053;-60
2022/03/20 02:20:47;;;;;;;1999.90;999.90;;;;;;;4.38;41.69;103526.09;15613244;28;20052;-60
2022/03/20 02:28:21;;;;;;;1999.90;999.90;;;;;;;4.15;42.21;103512.88;15611215;28;20080;-60
2022/03/20 02:35:53;;;;;;;1999.90;999.90;;;;;;;4.02;42.64;103495.31;15611968;28;20049;-61
2022/03/20 02:43:30;;;;;;;1999.90;999.90;;;;;;;4.12;42.12;103505.03;15609464;28;20057;-60
2022/03/20 02:51:02;;;;;;;1999.90;999.90;;;;;;;3.96;42.85;103503.63;15610143;28;20051;-60
2022/03/20 02:58:36;;;;;;;1999.90;999.90;;;;;;;3.82;42.95;103496.47;15610912;28;20049;-60
2022/03/20 03:06:08;;;;;;;1999.90;999.90;;;;;;;3.84;42.86;103491.56;15604852;28;20041;-60
2022/03/20 03:13:42;;;;;;;1999.90;999.90;;;;;;;3.76;43.20;103498.22;15600554;28;20448;-60
2022/03/20 03:21:18;;;;;;;1999.90;999.90;;;;;;;3.71;43.43;103487.81;15570798;28;20072;-60
2022/03/20 03:28:54;;;;;;;1999.90;999.90;;;;;;;3.52;43.75;103483.22;15607954;28;20115;-60
2022/03/20 03:36:27;;;;;;;1999.90;999.90;;;;;;;3.45;44.07;103474.16;15609331;28;20045;-58
2022/03/20 03:44:00;;;;;;;1999.90;999.90;;;;;;;3.26;44.31;103472.28;15608284;28;20388;-61
2022/03/20 03:51:33;;;;;;;1999.90;999.90;;;;;;;3.33;44.30;103462.91;15609048;28;20114;-60
2022/03/20 03:59:10;;;;;;;1999.90;999.90;;;;;;;3.31;44.35;103465.03;15610921;28;20041;-59
2022/03/20 04:06:43;;;;;;;1999.90;999.90;;;;;;;3.19;44.86;103466.78;15607278;28;20045;-60
2022/03/20 04:14:17;;;;;;;1999.90;999.90;;;;;;;3.16;45.21;103465.31;15606544;28;20068;-60
2022/03/20 04:21:49;;;;;;;1999.90;999.90;;;;;;;3.12;45.16;103469.56;15606779;28;20045;-60
2022/03/20 04:29:23;;;;;;;1999.90;999.90;;;;;;;3.07;45.41;103468.53;15571891;28;20060;-60
2022/03/20 04:36:57;;;;;;;1999.90;999.90;;;;;;;2.73;45.99;103462.22;15607357;28;20048;-59
2022/03/20 04:44:30;;;;;;;1999.90;999.90;;;;;;;2.82;46.35;103465.63;15579227;28;20043;-60
2022/03/20 04:59:58;;;;;;;1999.90;999.90;;;;;;;2.69;46.93;103483.00;15605761;28;19925;-60
2022/03/20 05:07:32;;;;;;;1999.90;999.90;;;;;;;2.72;46.80;103476.22;15612882;28;20128;-59
2022/03/20 05:15:07;;;;;;;1999.90;999.90;;;;;;;2.66;47.29;103486.19;15609287;28;20052;-57
2022/03/20 05:22:39;;;;;;;1999.90;999.90;;;;;;;2.59;46.98;103488.09;15600356;28;20056;-60
2022/03/20 05:30:13;;;;;;;1999.90;999.90;;;;;;;2.47;47.33;103489.78;15615767;28;20046;-60
2022/03/20 05:37:45;;;;;;;1999.90;999.90;;;;;;;2.86;46.92;103491.69;15616280;28;20478;-61
2022/03/20 05:45:19;;;;;;;1999.90;999.90;;;;;;;3.05;46.44;103504.63;15614985;28;20049;-60
2022/03/20 05:52:52;;;;;;;1999.90;999.90;;;;;;;2.69;47.33;103502.28;15615339;28;20049;-60
2022/03/20 06:00:27;;;;;;;1999.90;999.90;;;;;;;2.84;46.81;103510.38;15613560;28;20061;-60
2022/03/20 06:08:00;;;;;;;1999.90;999.90;;;;;;;2.95;46.78;103504.19;15611814;28;20045;-59
2022/03/20 06:15:34;;;;;;;1999.90;999.90;;;;;;;3.41;46.11;103520.66;15611888;28;20151;-59
2022/03/20 06:23:07;;;;;;;1999.90;999.90;;;;;;;3.40;45.71;103507.06;15612869;28;20506;-60
2022/03/20 06:30:43;;;;;;;1999.90;999.90;;;;;;;3.51;45.53;103505.53;15613537;28;20049;-60
2022/03/20 06:38:15;;;;;;;1999.90;999.90;;;;;;;3.72;44.92;103516.28;15610280;28;20423;-60
2022/03/20 06:45:49;;;;;;;1999.90;999.90;;;;;;;4.34;43.71;103515.50;15588316;28;20044;-60
2022/03/20 06:53:21;;;;;;;1999.90;999.90;;;;;;;4.72;42.40;103522.03;15611590;28;20379;-61
2022/03/20 07:00:58;;;;;;;1999.90;999.90;;;;;;;5.36;41.44;103513.31;15612104;28;20108;-61
2022/03/20 07:08:30;;;;;;;;;;;;;;;5.90;40.05;103517.16;15584646;28;20049;-61
2022/03/20 07:16:04;;;;;;;1999.90;999.90;;;;;;;6.30;39.31;103517.44;15606997;28;19921;-60
2022/03/20 07:23:37;;;;;;;1999.90;999.90;;;;;;;6.72;38.67;103522.97;15605611;28;20045;-60
2022/03/20 07:31:11;;;;;;;1999.90;999.90;;;;;;;6.28;38.92;103529.84;15606769;28;20485;-60
2022/03/20 07:38:44;;;;;;;1999.90;999.90;;;;;;;6.92;37.81;103520.69;15609568;28;20080;-60
2022/03/20 07:46:17;;;;;;;1999.90;999.90;;;;;;;7.84;36.42;103511.63;15606838;28;20050;-61
2022/03/20 07:53:50;;;;;;;1999.90;999.90;;;;;;;7.57;36.97;103518.81;15610281;28;20046;-61
2022/03/20 08:01:23;;;;;;;1999.90;999.90;;;;;;;7.88;36.27;103520.31;15614868;28;20140;-59
2022/03/20 08:08:59;;;;;;;1999.90;999.90;;;;;;;9.06;35.09;103527.75;15610483;28;20049;-62
2022/03/20 08:16:33;;;;;;;1999.90;999.90;;;;;;;9.20;34.44;103505.97;15600076;28;20511;-61
2022/03/20 08:24:06;;;;;;;1999.90;999.90;;;;;;;10.44;33.25;103529.56;15595459;28;20533;-62
2022/03/20 08:31:44;;;;;;;1999.90;999.90;;;;;;;9.90;33.07;103519.19;15602893;28;20053;-61
2022/03/20 08:39:16;;;;;;;1999.90;999.90;;;;;;;10.35;32.33;103523.59;15604888;28;20049;-62
2022/03/20 08:46:49;;;;;;;1999.90;999.90;;;;;;;10.31;32.17;103514.91;15615499;28;20170;-61
2022/03/20 08:54:22;;;;;;;1999.90;999.90;;;;;;;11.38;31.48;103523.31;15622926;28;20037;-61
2022/03/20 09:01:55;;;;;;;1999.90;999.90;;;;;;;11.66;31.14;103516.44;15613239;28;20045;-58
2022/03/20 09:09:27;;;;;;;1999.90;999.90;;;;;;;11.57;30.67;103505.81;15622432;28;20099;-63
2022/03/20 09:24:51;;;;;;;1999.90;999.90;;;;;;;12.04;30.12;103498.44;15627914;28;20042;-60
2022/03/20 09:32:26;;;;;;;1999.90;999.90;;;;;;;13.14;28.78;103501.59;15653820;28;20049;-61
2022/03/20 09:39:58;;;;;;;1999.90;999.90;;;;;;;13.75;28.73;103490.16;15621800;28;20486;-61
2022/03/20 09:47:35;;;;;;;1999.90;999.90;;;;;;;14.41;27.72;103486.16;15633670;28;20048;-61
2022/03/20 09:55:10;;;;;;;1999.90;999.90;;;;;;;14.37;27.44;103483.06;15627973;28;20041;-62
2022/03/20 10:02:44;;;;;;;1999.90;999.90;;;;;;;15.21;26.42;103477.25;15633699;28;20053;-60
2022/03/20 10:10:18;;;;;;;1999.90;999.90;;;;;;;15.27;25.62;103482.53;15624162;28;20052;-63
2022/03/20 10:18:05;;;;;;;1999.90;999.90;;;;;;;15.55;25.01;103466.75;15617281;28;20046;-61
2022/03/20 10:25:51;;;;;;;1999.90;999.90;;;;;;;16.51;24.30;103457.22;15625670;28;20073;-64
2022/03/20 10:33:25;;;;;;;1999.90;999.90;;;;;;;15.50;24.94;103460.34;15620018;28;20050;-62
2022/03/20 10:41:00;;;;;;;1999.90;999.90;;;;;;;15.30;24.16;103448.19;15604551;28;20119;-62
2022/03/20 10:48:37;;;;;;;1999.90;999.90;;;;;;;16.91;22.62;103422.69;15620045;28;20053;-63
2022/03/20 10:56:09;;;;;;;1999.90;999.90;;;;;;;16.76;22.86;103431.41;15597959;28;20038;-63
2022/03/20 11:03:44;;;;;;;1999.90;999.90;;;;;;;16.19;22.67;103421.38;15611683;28;20170;-61
2022/03/20 11:11:20;;;;;;;1999.90;999.90;;;;;;;18.18;21.08;103419.09;15605175;28;20506;-63
2022/03/20 11:18:57;;;;;;;1999.90;999.90;;;;;;;16.95;22.22;103412.44;15598303;28;20047;-63
2022/03/20 11:26:30;;;;;;;1999.90;999.90;;;;;;;16.43;22.87;103393.91;15612341;28;20524;-63
2022/03/20 11:34:05;;;;;;;1999.90;999.90;;;;;;;16.63;22.48;103376.63;15617249;28;20049;-63
2022/03/20 11:41:38;;;;;;;1999.90;999.90;;;;;;;16.23;23.06;103369.72;15614862;28;20506;-62
2022/03/20 11:49:23;;;;;;;1999.90;999.90;;;;;;;16.12;23.18;103365.41;15615981;28;20570;-62
2022/03/20 11:57:00;;;;;;;1999.90;999.90;;;;;;;16.96;22.63;103343.59;15611290;28;20064;-59
2022/03/20 12:04:50;;;;;;;1999.90;999.90;;;;;;;16.40;23.37;103347.47;15612432;28;20497;-60
2022/03/20 12:12:44;;;;;;;1999.90;999.90;;;;;;;17.43;22.24;103335.81;15602875;28;20077;-60
2022/03/20 12:20:52;;;;;;;79.97;74.13;;;;;;;17.24;22.16;103332.28;15630976;28;20045;-61
2022/03/20 12:28:31;;;;;;;1522.07;770.45;;;;;;;17.92;22.25;103316.31;15648796;28;20065;-62
2022/03/20 12:36:27;;;;;;;1999.90;999.90;;;;;;;17.42;22.21;103299.44;15619729;28;20046;-63
2022/03/20 12:44:01;;;;;;;1999.90;999.90;;;;;;;18.31;21.68;103293.81;15641897;28;20080;-63
2022/03/20 12:51:37;;;;;;;1999.90;999.90;;;;;;;19.54;20.70;103299.56;15642350;28;20148;-63
2022/03/20 12:59:19;;;;;;;1999.90;999.90;;;;;;;18.32;21.21;103272.88;15631224;28;20133;-61
2022/03/20 13:06:53;;;;;;;1999.90;999.90;;;;;;;18.45;20.93;103276.78;15625516;28;20095;-64
2022/03/20 13:14:26;;;;;;;1529.55;777.33;;;;;;;18.61;20.62;103275.16;15628528;28;20077;-63
2022/03/20 13:22:03;;;;;;;717.40;379.60;;;;;;;18.97;20.24;103279.84;15623058;28;20442;-63
2022/03/20 13:29:36;;;;;;;1035.43;532.90;;;;;;;17.94;21.44;103249.88;15621583;28;20120;-62
2022/03/20 13:37:12;;;;;;;1999.90;999.90;;;;;;;20.75;18.99;103243.47;15623572;28;20117;-61
2022/03/20 13:44:46;;;;;;;109.90;102.35;;;;;;;19.24;20.37;103236.25;15605207;28;20083;-62
2022/03/20 13:52:26;;;;;;;1528.05;776.13;;;;;;;15.51;22.89;103229.25;15622147;28;20038;-62
2022/03/20 14:00:05;;;;;;;1518.50;767.05;;;;;;;15.11;23.50;103219.50;15623606;28;20465;-63
2022/03/20 14:07:47;;;;;;;547.15;293.50;;;;;;;15.11;23.71;103208.25;15612604;28;20649;-62
2022/03/20 14:15:19;;;;;;;57.95;53.45;;;;;;;14.90;24.51;103196.47;15621014;28;20041;-63
2022/03/20 14:22:54;;;;;;;1999.90;999.90;;;;;;;14.90;23.47;103196.47;15620309;28;20076;-61
2022/03/20 14:46:08;;;;;;;1999.90;999.90;;;;;;;14.46;24.24;103179.88;15619252;28;20129;-62
2022/03/20 14:53:42;;;;;;;1999.90;999.90;;;;;;;14.58;24.71;103176.63;15615584;28;20621;-63
2022/03/20 15:01:16;;;;;;;1999.90;999.90;;;;;;;14.49;24.59;103164.41;15617367;28;20593;-63
2022/03/20 15:16:46;;;;;;;1999.90;999.90;;;;;;;14.26;24.67;103158.47;15527369;28;20053;-59
2022/03/20 15:24:20;;;;;;;1999.90;999.90;;;;;;;14.15;24.89;103157.75;15595725;28;20045;-60
2022/03/20 15:31:54;;;;;;;1999.90;999.90;;;;;;;14.11;24.91;103148.25;15611405;28;20111;-62
2022/03/20 15:39:27;;;;;;;1999.90;999.90;;;;;;;14.09;25.04;103150.53;15613560;28;20122;-60
2022/03/20 15:47:00;;;;;;;1999.90;999.90;;;;;;;13.78;25.23;103133.19;15592404;28;20034;-57
2022/03/20 15:54:34;;;;;;;1999.90;999.90;;;;;;;14.09;25.39;103144.91;15589567;28;20053;-58
2022/03/20 16:02:07;;;;;;;;;;;;;;;14.00;25.54;103143.06;15612051;28;20124;-61
2022/03/20 16:09:40;;;;;;;1999.90;999.90;;;;;;;13.74;25.92;103139.66;15612835;28;19964;-59
2022/03/20 16:17:12;;;;;;;1999.90;999.90;;;;;;;13.59;26.17;103140.66;15607529;28;20487;-58
2022/03/20 16:32:36;;;;;;;1999.90;999.90;;;;;;;13.19;26.65;103139.06;15591524;28;20076;-61
2022/03/20 16:40:11;;;;;;;1999.90;999.90;;;;;;;13.23;26.50;103148.53;15609283;28;20111;-57
2022/03/20 16:47:43;;;;;;;1999.90;999.90;;;;;;;12.97;26.75;103154.31;15603245;28;20048;-57
2022/03/20 16:55:17;;;;;;;1999.90;999.90;;;;;;;12.87;26.83;103145.97;15610779;28;20042;-61
2022/03/20 17:02:49;;;;;;;1999.90;999.90;;;;;;;12.43;27.50;103148.75;15617765;28;20049;-59
2022/03/20 17:10:23;;;;;;;1999.90;999.90;;;;;;;12.52;27.35;103134.97;15623302;28;20041;-58
2022/03/20 17:17:55;;;;;;;1999.90;999.90;;;;;;;12.13;28.05;103142.13;15603243;28;20048;-62
2022/03/20 17:25:33;;;;;;;1999.90;999.90;;;;;;;11.96;28.41;103166.78;15616552;28;20621;-58
2022/03/20 17:33:07;;;;;;;1999.90;999.90;;;;;;;11.89;28.53;103163.47;15603450;28;20034;-57
2022/03/20 17:40:41;;;;;;;1999.90;999.90;;;;;;;11.49;28.78;103167.13;15620626;28;20044;-59
2022/03/20 17:48:15;;;;;;;1999.90;999.90;;;;;;;11.42;29.18;103166.56;15619823;28;20033;-58
2022/03/20 17:55:49;;;;;;;1999.90;999.90;;;;;;;11.28;29.02;103172.69;15615853;28;20049;-59
2022/03/20 18:11:14;;;;;;;1999.90;999.90;;;;;;;10.92;29.69;103170.97;15603746;28;20045;-62
2022/03/20 18:18:46;;;;;;;1999.90;999.90;;;;;;;10.96;29.53;103189.72;15618891;28;20045;-61
2022/03/20 18:26:20;;;;;;;1999.90;999.90;;;;;;;10.88;29.99;103197.78;15468664;28;20066;-58
2022/03/20 18:33:52;;;;;;;1999.90;999.90;;;;;;;10.70;29.98;103204.69;15385934;28;20525;-61
2022/03/20 18:41:26;;;;;;;1999.90;999.90;;;;;;;10.54;30.67;103191.81;15390990;28;20109;-61
2022/03/20 18:48:58;;;;;;;;;;;;;;;10.41;30.74;103190.34;15436023;28;20051;-62
2022/03/20 18:56:32;;;;;;;1999.90;999.90;;;;;;;10.06;30.91;103197.38;15420965;28;19926;-60
2022/03/20 19:04:05;;;;;;;1999.90;999.90;;;;;;;10.19;31.00;103204.41;15393014;28;20058;-62
2022/03/20 19:11:39;;;;;;;1999.90;999.90;;;;;;;10.13;31.02;103202.72;15408379;28;20133;-61
2022/03/20 19:19:12;;;;;;;1999.90;999.90;;;;;;;9.65;31.32;103204.63;15402255;28;20762;-61
2022/03/20 19:26:46;;;;;;;1999.90;999.90;;;;;;;9.70;31.79;103203.84;15412129;28;20051;-60
2022/03/20 19:42:11;;;;;;;1999.90;999.90;;;;;;;9.62;31.97;103207.94;15406523;28;20497;-61
2022/03/20 19:49:44;;;;;;;1999.90;999.90;;;;;;;9.38;32.10;103203.81;15391581;28;20551;-62
2022/03/20 19:57:18;;;;;;;1999.90;999.90;;;;;;;9.08;32.57;103207.16;15394675;28;20066;-63
2022/03/20 20:04:52;;;;;;;1999.90;999.90;;;;;;;8.99;32.57;103211.53;15424229;28;20058;-61
2022/03/20 20:12:25;;;;;;;1999.90;999.90;;;;;;;9.09;32.67;103218.03;15428387;28;20057;-61
2022/03/20 20:20:01;;;;;;;1999.90;999.90;;;;;;;8.89;33.02;103215.88;15432110;28;20057;-60
2022/03/20 20:27:37;;;;;;;1999.90;999.90;;;;;;;8.92;32.90;103217.28;15427715;28;20050;-62
2022/03/20 20:35:12;;;;;;;1999.90;999.90;;;;;;;8.93;32.60;103219.81;15450120;28;20050;-60
2022/03/20 20:42:46;;;;;;;1999.90;999.90;;;;;;;8.68;33.07;103220.38;15470765;28;20093;-61
2022/03/20 20:50:19;;;;;;;1999.90;999.90;;;;;;;8.67;33.11;103215.91;15451173;28;20242;-58
2022/03/20 20:57:54;;;;;;;1999.90;999.90;;;;;;;8.63;33.30;103225.84;15450355;28;20046;-56
2022/03/20 21:05:26;;;;;;;1999.90;999.90;;;;;;;8.49;33.58;103215.38;15434080;28;20043;-58
2022/03/20 21:13:01;;;;;;;1999.90;999.90;;;;;;;8.46;33.91;103227.88;15429342;28;20052;-60
2022/03/20 21:20:36;;;;;;;1999.90;999.90;;;;;;;8.27;34.05;103227.31;15444671;28;20488;-59
2022/03/20 21:28:15;;;;;;;1999.90;999.90;;;;;;;8.15;34.53;103222.94;15428898;28;20042;-60
2022/03/20 21:36:00;;;;;;;1999.90;999.90;;;;;;;8.06;34.42;103228.94;15420961;28;20078;-62
2022/03/20 21:43:34;;;;;;;1999.90;999.90;;;;;;;7.86;35.15;103227.78;15417180;28;20047;-57
2022/03/20 21:51:08;;;;;;;1999.90;999.90;;;;;;;7.89;35.12;103233.69;15429694;28;20047;-58
2022/03/20 21:58:42;;;;;;;1999.90;999.90;;;;;;;7.79;35.38;103233.50;15416506;28;20677;-60
2022/03/20 22:06:15;;;;;;;1999.90;999.90;;;;;;;7.68;35.66;103238.06;15418955;28;20039;-59
2022/03/20 22:13:49;;;;;;;1999.90;999.90;;;;;;;7.43;36.46;103232.91;15427438;28;20047;-58
2022/03/20 22:21:22;;;;;;;1999.90;999.90;;;;;;;7.39;36.42;103228.09;15448545;28;20039;-60
2022/03/20 22:28:56;;;;;;;1999.90;999.90;;;;;;;6.84;36.90;103225.97;15434989;28;20409;-61
2022/03/20 22:44:21;;;;;;;1999.90;999.90;;;;;;;6.69;37.75;103211.78;15434345;28;20518;-57
2022/03/20 22:51:53;;;;;;;1999.90;999.90;;;;;;;6.71;37.90;103220.72;15436408;28;20126;-59
2022/03/20 22:59:27;;;;;;;1999.90;999.90;;;;;;;6.51;37.87;103223.91;15431806;28;20050;-60
2022/03/20 23:07:01;;;;;;;1999.90;999.90;;;;;;;6.56;37.46;103204.56;15434130;28;20058;-59
2022/03/20 23:14:36;;;;;;;1999.90;999.90;;;;;;;6.61;37.48;103215.78;15433434;28;20476;-59
2022/03/20 23:22:08;;;;;;;1999.90;999.90;;;;;;;6.74;36.91;103201.63;15415901;28;20459;-59
2022/03/20 23:29:42;;;;;;;1999.90;999.90;;;;;;;6.32;38.39;103207.41;15431007;28;20077;-58
2022/03/20 23:37:14;;;;;;;1999.90;999.90;;;;;;;6.52;37.32;103206.16;15391562;28;20599;-59
2022/03/20 23:44:48;;;;;;;1999.90;999.90;;;;;;;6.43;37.36;103205.69;15430772;28;20042;-60
2022/03/20 23:52:20;;;;;;;1999.90;999.90;;;;;;;6.63;37.16;103208.91;15436085;28;20416;-57
2022/03/20 23:59:54;;;;;;;1999.90;999.90;;;;;;;6.42;37.73;103212.34;15423400;28;20039;-57
